masterkit.ru alexa rank chart, masterkit.ru alexa rank daily changes

masterkit.ru alexa rank chart, masterkit.ru alexa rank daily changes

masterkit.ru
Actual rank:
222 647

RANK HISTORY

Date Rank Diff
2018/05/26 222 647 +52 821
2018/05/25 169 826 +11 654
2018/05/24 158 172 -58 355
2018/05/23 216 527 +460
2018/05/22 216 067 +17 163
2018/05/21 198 904 +11 605
2018/05/20 187 299 -28 600
2018/05/19 215 899 -5 553
2018/05/18 221 452 -73 042
2018/05/17 294 494 +75 213
2018/05/16 219 281 -2 275
2018/05/15 221 556 +5 183
2018/05/14 216 373 -12 961
2018/05/13 229 334 +75 217
2018/05/12 154 117 -145 395
2018/05/11 299 512 +93 012
2018/05/10 206 500 -20 993
2018/05/09 227 493 -43 411
2018/05/08 270 904 +10 154
2018/05/07 260 750 +263
2018/05/06 260 487 +13 493
2018/05/05 246 994 -110 362
2018/05/04 357 356 +130 926
2018/05/03 226 430 -13 934
2018/05/02 240 364 +9 802
2018/05/01 230 562 +1 236
2018/04/30 229 326 +16 393
2018/04/29 212 933 -19 825
2018/04/28 232 758 +44 576
2018/04/27 188 182 -8 097
2018/04/26 196 279 +5 146
2018/04/25 191 133 +21 819
2018/04/24 169 314 -18 868
2018/04/23 188 182 -49 380
2018/04/22 237 562 +43 688
2018/04/21 193 874 +7 436
2018/04/20 186 438 -20 374
2018/04/19 206 812 +5 688
2018/04/18 201 124 +33 120
2018/04/17 168 004 -14 354
2018/04/16 182 358 -58 073
2018/04/15 240 431 +38 668
2018/04/14 201 763 +11 363
2018/04/13 190 400 +52 356
2018/04/12 138 044 +12 871
2018/04/11 125 173 -30 764
2018/04/10 155 937 +5 561
2018/04/09 150 376 -44 625
2018/04/08 195 001 -11 638
2018/04/07 206 639 +46 097
2018/04/06 160 542 -40 393
2018/04/05 200 935 +12 849
2018/04/04 188 086 +27 770
2018/04/03 160 316 -91 585
2018/04/02 251 901 +70 482
2018/04/01 181 419 -1 323
2018/03/31 182 742 -30 692
2018/03/30 213 434 +31 408
2018/03/29 182 026 -39 842
2018/03/28 221 868 +8 538
2018/03/27 213 330

WIDGET FOR YOUR SITE

DOMAINS WITH THE NEAREST RANK

Domain Rank
192-168-1-1.ru 222 642
socnhi.com 222 643
zindaa.mn 222 644
globalwidemedia.com 222 645
greenpasture.org 222 646
masterkit.ru 222 647
planetavto.ru 222 648
apartmanija.hr 222 649
capx.co 222 650
chemist-4-u.com 222 651
webforditas.hu 222 652

DOMAINS WITH THE NEAREST RANK BY TLD .ru

Domain Rank
yantarenergosbyt.ru 222 530
speedmining.ru 222 542
tooday.ru 222 558
lookcolor.ru 222 593
192-168-1-1.ru 222 642
masterkit.ru 222 647
planetavto.ru 222 648
zoombix.ru 222 658
24-open.ru 222 665
bashesk.ru 222 680
proswim.ru 222 691